Main page
METAR-TAF:

METAR-TAF

Airports :

Mazar-i-Sharif International Airport

Mazar-i-Sharif, Afghanistan

latitude: 36-42N, longitude: 067-12E, elevation: 378 m

Current weather observation

The report was made 1 hour and 4 minutes ago, at 04:50 UTC
Wind 3 kt from variable directions
Temperature 29°C
Humidity 14%
Pressure 1011 hPa
Visibility: 9000 m
Clear sky

METAR: OAMS 250450Z VRB03KT 9000 SKC 29/M01 Q1011 BLU+BLU+

Time: 10:24 (05:54 UTC)

Forecast

The report was made 49 minutes ago, at 05:05 UTC
Forecast valid from 25 at 06 UTC to 26 at 06 UTC
Wind 3 kt from the Northeast
Visibility 10 km or more
Clear sky
Becoming
from 25 at 13 UTC to 25 at 15 UTC
Wind 10 kt from the South/Southwest
Visibility 10 km or more
Clear sky
Becoming
from 26 at 01 UTC to 26 at 03 UTC
Wind 6 kt from the North/Northwest
Visibility 10 km or more
Clear sky

TAF: OAMS 250505Z 2506/2606 05003KT 9999 NSW SKC BECMG 2513/2515 21010KT 9999 NSW SKC BECMG 2601/2603 33006KT 9999 NSW SKC

Weather observations and forecasts of more than 4000 airports (METAR and TAF reports).

The available stations are represented by yellow and red dots on the map.

Hover mouse over dot to see the name of the station.

Then click to see weather observations and forecasts.

To change the map : click on the green buttons with a black cross to zoom in, on the green button with a dash to zoom out, or on the green arrows for adjacent maps.


METAR-TAF: